Aérodrome :
LOGIN :

S'inscrire | Disclaimer

   EN    FR    IT 

 










Légende :    VFR   VFR Marginal   IFR   IFR Intensif   IFR Très Intensif
Visi : 
Plafond : 
>= 8 km
>= 3000ft
5 à 8 km
1000 à 3000 ft
1500m à 5 km
500 à 1000 ft
800 à 1500m
200 à 500 ft
< 800m
< 200 ft
Symboles :   Orages  Brouillard  Fortes neiges  Fortes précipitations  Vent > 20 kt
SIGMETs :   Divers  Orages  Givrage  Turbulence  Onde Orograph.  Cendres Volcan.






- Altitude de l'aérodrome : 2936 ft


LECH - Calamocha

DERNIER METAR :
  • 232000Z AUTO 24013KT 200V260 9000 NSC 12/M04 Q1008

METARs EXPIRÉS :
  • 231930Z AUTO 25008KT CAVOK 11/M04 Q1008
  • 231900Z AUTO 25009KT CAVOK 12/M05 Q1008
  • 231830Z AUTO 26007KT 230V290 CAVOK 12/M05 Q1008
  • 231800Z AUTO 27003KT 210V320 9000 NSC 13/M04 Q1007
  • 231730Z AUTO 27008KT 230V300 9000 NSC 14/M06 Q1007
  • 231700Z AUTO 29006KT 220V330 CAVOK 14/M05 Q1007
  • 231630Z AUTO 31011KT 270V350 9999 -RA NSC 14/M05 Q1007
  • 231600Z AUTO 28013G23KT 240V330 CAVOK 16/M07 Q1007
  • 231530Z AUTO 29013KT 240V330 CAVOK 16/M08 Q1007

Prévision TAF périmée.



MET'MAP, la Météo Aéronautique d'un coup d'oeil ! - Copyright ORBIFLY Décembre 2007 - Disclaimer

ORBIFLY MET'MAP TEAM :

Programmation & Développement : Alexandra Zaïnal
Sur une idée originale de : Baudouin d'Aumeries
Soutien technique & logistique : Manuel Goepfert
Assistance : Marc-Olivier Méhu




SOURCES & CREDITS :

   NOAA